Time;durP1;ratioP1;P1;durP2;ratioP2;P2;SDS_P1;SDS_P2;PMS_P1;PMS_P2;Temp;Humidity;BMP_temperature;BMP_pressure;BME280_temperature;BME280_humidity;BME280_pressure;Samples;Min_cycle;Max_cycle;Signal;HPM_P1;HPM_P2
2021/12/05 00:21:43;;;;;;;28.33;16.42;;;3.70;99.90;;;;;;5062887;28;20495;-82
2021/12/05 00:24:15;;;;;;;30.02;15.48;;;3.70;99.90;;;;;;5051007;28;20075;-82
2021/12/05 00:26:51;;;;;;;29.33;14.88;;;3.70;99.90;;;;;;5058986;28;20486;-81
2021/12/05 00:32:21;;;;;;;29.77;14.75;;;3.80;99.90;;;;;;5057367;28;20048;-82
2021/12/05 00:57:32;;;;;;;21.98;12.45;;;3.70;99.90;;;;;;5056721;28;20037;-82
2021/12/05 00:59:41;;;;;;;21.38;12.57;;;3.70;99.90;;;;;;5050183;28;20045;-82
2021/12/05 01:05:26;;;;;;;21.17;12.43;;;3.70;99.90;;;;;;5076065;28;20036;-82
2021/12/05 01:15:39;;;;;;;24.42;12.73;;;3.70;99.90;;;;;;5064693;28;20432;-81
2021/12/05 01:18:08;;;;;;;23.13;11.90;;;3.80;99.90;;;;;;5042340;28;20051;-81
2021/12/05 01:20:39;;;;;;;22.55;11.63;;;3.70;99.90;;;;;;5056298;28;20041;-81
2021/12/05 01:26:05;;;;;;;25.27;12.27;;;3.70;99.90;;;;;;5065451;28;20496;-81
2021/12/05 01:33:56;;;;;;;22.67;11.63;;;3.70;99.90;;;;;;5075439;28;20112;-81
2021/12/05 01:36:35;;;;;;;21.85;11.02;;;3.80;99.90;;;;;;5063199;28;20105;-81
2021/12/05 02:15:56;;;;;;;28.77;14.43;;;4.00;99.90;;;;;;5048754;28;20044;-82
2021/12/05 02:30:33;;;;;;;33.10;17.80;;;4.00;99.90;;;;;;5080594;28;20446;-82
2021/12/05 02:43:12;;;;;;;40.47;21.45;;;4.00;99.90;;;;;;5050546;28;20079;-82
2021/12/05 02:45:45;;;;;;;42.60;21.83;;;4.00;99.90;;;;;;5057664;28;20040;-82
2021/12/05 02:48:12;;;;;;;39.25;21.27;;;4.00;99.90;;;;;;5058014;28;20048;-82
2021/12/05 02:50:40;;;;;;;40.78;22.63;;;4.00;99.90;;;;;;5056561;28;20043;-82
2021/12/05 02:53:19;;;;;;;41.78;23.00;;;4.00;99.90;;;;;;5046514;28;20042;-82
2021/12/05 02:55:48;;;;;;;39.83;22.30;;;4.10;99.90;;;;;;5039411;28;20128;-82
2021/12/05 03:01:12;;;;;;;40.90;23.15;;;4.30;99.90;;;;;;5074304;28;20075;-82
2021/12/05 03:03:37;;;;;;;42.55;24.73;;;4.10;99.90;;;;;;5046237;28;20541;-82
2021/12/05 03:06:15;;;;;;;46.50;24.38;;;4.00;99.90;;;;;;5076746;28;20072;-82
2021/12/05 03:08:41;;;;;;;36.13;22.88;;;4.00;99.90;;;;;;5058810;28;20048;-82
2021/12/05 03:11:08;;;;;;;47.10;25.83;;;4.30;99.90;;;;;;5069596;28;20102;-82
2021/12/05 03:13:37;;;;;;;41.95;24.73;;;4.00;99.90;;;;;;5061301;28;20040;-82
2021/12/05 03:16:03;;;;;;;43.35;24.73;;;4.10;99.90;;;;;;5046418;28;20044;-82
2021/12/05 03:18:29;;;;;;;41.38;24.13;;;4.10;99.90;;;;;;5061539;28;20040;-82
2021/12/05 03:20:58;;;;;;;40.42;23.08;;;4.00;99.90;;;;;;5061918;28;20040;-82
2021/12/05 03:23:25;;;;;;;40.63;23.33;;;4.00;99.90;;;;;;5044591;28;20040;-81
2021/12/05 03:25:51;;;;;;;41.53;22.88;;;4.10;99.90;;;;;;5061940;28;20040;-81
2021/12/05 03:28:17;;;;;;;39.20;23.33;;;4.30;99.90;;;;;;5061633;28;20123;-81
2021/12/05 03:30:45;;;;;;;34.88;20.83;;;4.20;99.90;;;;;;5061543;28;20502;-81
2021/12/05 03:33:11;;;;;;;38.28;22.45;;;4.10;99.90;;;;;;5044635;28;20051;-81
2021/12/05 03:35:37;;;;;;;36.28;20.85;;;4.10;99.90;;;;;;5061540;28;20399;-82
2021/12/05 03:38:05;;;;;;;32.58;18.45;;;4.10;99.90;;;;;;5040786;28;20068;-81
2021/12/05 03:40:34;;;;;;;37.38;19.35;;;4.10;99.90;;;;;;5073321;28;20042;-81
2021/12/05 03:43:03;;;;;;;35.15;19.42;;;4.10;99.90;;;;;;5061395;28;20412;-83
2021/12/05 03:45:34;;;;;;;33.42;18.45;;;4.10;99.90;;;;;;5077871;28;20044;-82
2021/12/05 03:48:01;;;;;;;28.02;13.82;;;4.00;99.90;;;;;;5060813;28;20047;-82
2021/12/05 03:50:28;;;;;;;32.72;16.80;;;4.00;99.90;;;;;;5054237;28;20052;-82
2021/12/05 03:52:55;;;;;;;34.20;16.48;;;4.00;99.90;;;;;;5060443;28;20548;-82
2021/12/05 03:55:22;;;;;;;30.08;16.13;;;4.00;99.90;;;;;;5041788;28;20432;-82
2021/12/05 03:57:48;;;;;;;29.77;14.55;;;4.00;99.90;;;;;;5040580;28;20053;-82
2021/12/05 04:00:20;;;;;;;31.15;14.32;;;4.00;99.90;;;;;;5077791;28;20090;-82
2021/12/05 04:02:48;;;;;;;26.45;14.00;;;3.90;99.90;;;;;;5061256;28;20041;-82
2021/12/05 04:05:14;;;;;;;27.05;13.32;;;3.90;99.90;;;;;;5060648;28;20043;-82
2021/12/05 04:07:40;;;;;;;27.10;12.65;;;3.90;99.90;;;;;;5061177;28;20083;-81
2021/12/05 04:10:07;;;;;;;25.75;13.25;;;3.90;99.90;;;;;;5057175;28;20396;-81
2021/12/05 04:12:33;;;;;;;25.67;12.25;;;3.90;99.90;;;;;;5085193;28;20043;-81
2021/12/05 04:14:59;;;;;;;23.63;11.57;;;4.00;99.90;;;;;;5075117;28;20037;-81
2021/12/05 04:17:25;;;;;;;28.63;12.48;;;3.90;99.90;;;;;;5049900;28;20101;-81
2021/12/05 04:19:51;;;;;;;26.38;11.98;;;3.90;99.90;;;;;;5061042;28;20487;-81
2021/12/05 04:22:17;;;;;;;26.35;10.18;;;3.80;99.90;;;;;;5077379;28;20048;-81
2021/12/05 04:24:44;;;;;;;22.80;10.60;;;3.80;99.90;;;;;;5076354;28;20113;-81
2021/12/05 04:27:10;;;;;;;22.05;10.35;;;3.90;99.90;;;;;;5040625;28;20096;-81
2021/12/05 04:29:37;;;;;;;22.50;9.85;;;3.80;99.90;;;;;;5051459;28;20119;-81
2021/12/05 04:32:04;;;;;;;25.02;9.48;;;3.80;99.90;;;;;;5057812;28;20032;-81
2021/12/05 04:34:31;;;;;;;22.40;9.98;;;3.70;99.90;;;;;;5033900;28;20045;-81
2021/12/05 04:36:57;;;;;;;25.15;9.55;;;3.70;99.90;;;;;;5061119;28;20044;-81
2021/12/05 04:39:25;;;;;;;25.55;9.57;;;3.60;99.90;;;;;;5025923;28;20044;-81
2021/12/05 04:41:52;;;;;;;23.73;9.10;;;3.60;99.90;;;;;;5054957;28;20044;-81
2021/12/05 04:44:20;;;;;;;23.48;9.50;;;3.60;99.90;;;;;;5037712;28;20033;-81
2021/12/05 04:46:46;;;;;;;23.58;9.18;;;3.60;99.90;;;;;;5068863;28;20040;-81
2021/12/05 04:49:12;;;;;;;24.02;9.00;;;3.70;99.90;;;;;;5060109;28;20388;-81
2021/12/05 04:51:41;;;;;;;20.10;9.13;;;4.20;99.90;;;;;;5050232;28;20045;-81
2021/12/05 04:54:10;;;;;;;19.67;8.88;;;3.60;99.90;;;;;;5039420;28;20045;-81
2021/12/05 04:56:36;;;;;;;20.77;9.00;;;3.40;99.90;;;;;;5060386;28;20055;-81
2021/12/05 04:59:04;;;;;;;21.00;9.50;;;3.40;99.90;;;;;;5060351;28;20044;-81
2021/12/05 05:01:31;;;;;;;24.85;8.98;;;3.40;99.90;;;;;;5060148;28;20036;-81
2021/12/05 05:03:58;;;;;;;21.52;9.63;;;3.40;99.90;;;;;;5057621;28;20080;-81
2021/12/05 05:06:24;;;;;;;22.45;8.90;;;3.50;99.90;;;;;;5072934;28;20044;-81
2021/12/05 05:08:53;;;;;;;21.88;8.27;;;3.70;99.90;;;;;;5042438;28;20033;-81
2021/12/05 05:11:22;;;;;;;21.52;9.10;;;3.50;99.90;;;;;;5076695;28;20032;-81
2021/12/05 05:13:48;;;;;;;25.95;9.27;;;3.90;99.90;;;;;;5059332;28;20033;-81
2021/12/05 05:16:16;;;;;;;25.25;9.48;;;4.20;99.90;;;;;;5040519;28;20067;-81
2021/12/05 05:18:48;;;;;;;21.95;8.68;;;3.30;99.90;;;;;;5075124;28;20049;-81
2021/12/05 05:29:33;;;;;;;19.85;9.23;;;3.40;99.90;;;;;;5061548;28;20131;-81
2021/12/05 05:48:14;;;;;;;26.67;9.80;;;3.30;99.90;;;;;;5059234;28;20109;-81
2021/12/05 05:50:20;;;;;;;23.15;9.02;;;3.90;99.90;;;;;;5054118;28;20043;-81
2021/12/05 05:52:47;;;;;;;27.00;9.35;;;3.30;99.90;;;;;;5056255;28;20485;-81
2021/12/05 05:55:13;;;;;;;28.75;9.50;;;3.30;99.90;;;;;;5074728;28;20052;-81
2021/12/05 06:00:17;;;;;;;24.45;9.48;;;3.30;99.90;;;;;;5058638;28;20044;-81
2021/12/05 06:05:30;;;;;;;32.15;9.27;;;3.20;99.90;;;;;;5071505;28;20041;-81
2021/12/05 06:07:56;;;;;;;21.50;8.68;;;3.20;99.90;;;;;;5038787;28;20049;-81
2021/12/05 06:10:26;;;;;;;23.38;8.93;;;3.30;99.90;;;;;;5038353;28;20045;-81
2021/12/05 06:12:52;;;;;;;27.38;9.63;;;3.20;99.90;;;;;;5068883;28;20407;-81
2021/12/05 06:15:20;;;;;;;23.48;9.68;;;3.20;99.90;;;;;;5055253;28;20041;-81
2021/12/05 06:17:46;;;;;;;28.10;9.05;;;3.20;99.90;;;;;;5066616;28;20041;-81
2021/12/05 06:20:18;;;;;;;27.55;9.38;;;3.40;99.90;;;;;;5058364;28;20492;-81
2021/12/05 06:22:45;;;;;;;19.70;8.80;;;3.20;99.90;;;;;;5042188;28;20040;-81
2021/12/05 06:25:18;;;;;;;26.67;9.02;;;3.90;99.90;;;;;;5041556;28;20090;-82
2021/12/05 06:27:45;;;;;;;23.90;8.80;;;3.20;99.90;;;;;;5049077;28;20049;-82
2021/12/05 06:30:28;;;;;;;28.15;9.25;;;3.20;99.90;;;;;;5067283;28;20039;-81
2021/12/05 06:46:25;;;;;;;26.77;10.77;;;3.30;99.90;;;;;;5084539;28;20500;-81
2021/12/05 06:48:51;;;;;;;25.77;12.00;;;3.40;99.90;;;;;;5061239;28;20048;-81
2021/12/05 06:51:21;;;;;;;36.15;12.05;;;3.30;99.90;;;;;;5050655;28;20048;-81
2021/12/05 06:53:47;;;;;;;26.15;11.95;;;4.00;99.90;;;;;;5047342;28;20106;-81
2021/12/05 06:56:13;;;;;;;26.55;12.23;;;3.40;99.90;;;;;;5042870;28;20073;-81
2021/12/05 06:58:39;;;;;;;29.48;12.70;;;3.40;99.90;;;;;;5037696;28;20043;-81
2021/12/05 07:01:08;;;;;;;32.17;13.73;;;3.40;99.90;;;;;;5051713;28;20415;-81
2021/12/05 07:03:35;;;;;;;28.42;13.50;;;3.40;99.90;;;;;;5061621;28;20128;-81
2021/12/05 07:08:33;;;;;;;34.22;14.98;;;3.40;99.90;;;;;;5061183;28;20037;-81
2021/12/05 07:11:49;;;;;;;31.80;13.90;;;3.50;99.90;;;;;;5064098;28;20089;-81
2021/12/05 07:16:51;;;;;;;30.02;14.40;;;3.50;99.90;;;;;;5064211;28;20100;-81
2021/12/05 07:21:50;;;;;;;31.00;14.70;;;3.60;99.90;;;;;;5061737;28;20051;-81
2021/12/05 07:40:18;;;;;;;34.67;15.75;;;3.70;99.90;;;;;;5070836;28;20048;-81
2021/12/05 07:40:45;;;;;;;24.67;14.95;;;3.70;99.90;;;;;;5048819;28;20460;-81
2021/12/05 07:43:12;;;;;;;27.48;15.48;;;3.70;99.90;;;;;;5059926;28;20033;-81
2021/12/05 07:45:49;;;;;;;29.40;16.08;;;3.70;99.90;;;;;;5058853;28;20036;-81
2021/12/05 07:48:22;;;;;;;32.78;16.30;;;3.70;99.90;;;;;;5077530;28;20083;-81
2021/12/05 07:51:13;;;;;;;28.85;15.20;;;3.70;99.90;;;;;;5076365;28;20051;-81
2021/12/05 07:53:52;;;;;;;31.75;17.05;;;3.80;99.90;;;;;;5064062;28;20500;-81
2021/12/05 07:56:35;;;;;;;29.90;16.52;;;3.80;99.90;;;;;;5044463;28;20044;-81
2021/12/05 07:59:55;;;;;;;35.70;17.92;;;3.80;99.90;;;;;;5043699;28;20045;-81
2021/12/05 08:15:42;;;;;;;29.35;16.38;;;3.80;99.90;;;;;;5057843;28;20045;-81
2021/12/05 08:18:08;;;;;;;28.45;16.30;;;4.30;99.90;;;;;;5046445;28;20049;-81
2021/12/05 08:20:37;;;;;;;31.25;16.30;;;3.90;99.90;;;;;;5031498;28;20476;-81
2021/12/05 08:23:04;;;;;;;25.90;14.80;;;4.00;99.90;;;;;;5054413;28;20178;-81
2021/12/05 08:25:33;;;;;;;25.20;14.43;;;4.00;99.90;;;;;;5043556;28;20065;-80
2021/12/05 08:30:44;;;;;;;25.15;13.98;;;4.10;99.90;;;;;;5080057;28;20045;-81
2021/12/05 08:36:30;;;;;;;25.92;12.82;;;4.10;99.90;;;;;;5058832;28;20037;-82
2021/12/05 08:44:40;;;;;;;22.95;12.88;;;4.20;99.90;;;;;;5071564;28;20049;-81
2021/12/05 09:28:01;;;;;;;18.67;10.48;;;4.50;99.90;;;;;;5060234;28;20055;-81
2021/12/05 09:31:23;;;;;;;20.83;10.93;;;4.50;99.90;;;;;;5059986;28;20453;-81
2021/12/05 09:40:02;;;;;;;19.30;10.95;;;4.60;99.90;;;;;;5053269;28;20497;-81
2021/12/05 10:01:52;;;;;;;21.48;10.82;;;4.60;99.90;;;;;;5072213;28;20119;-82
2021/12/05 10:07:04;;;;;;;19.92;10.15;;;4.80;99.90;;;;;;5058716;28;20128;-81
2021/12/05 10:15:03;;;;;;;18.15;10.55;;;4.90;99.90;;;;;;5075003;28;20119;-81
2021/12/05 10:18:02;;;;;;;18.92;10.38;;;5.00;99.90;;;;;;5085384;28;20488;-81
2021/12/05 10:26:18;;;;;;;18.63;9.35;;;5.10;99.90;;;;;;5035127;28;20067;-81
2021/12/05 10:34:57;;;;;;;17.05;8.27;;;5.20;99.90;;;;;;5075283;28;20064;-81
2021/12/05 10:37:25;;;;;;;16.15;8.20;;;5.20;99.90;;;;;;5074965;28;20045;-81
2021/12/05 10:40:06;;;;;;;14.73;7.80;;;5.20;99.90;;;;;;5042315;28;20431;-81
2021/12/05 10:42:44;;;;;;;20.10;8.07;;;5.20;99.90;;;;;;5057257;28;21236;-81
2021/12/05 10:45:19;;;;;;;15.38;7.05;;;5.20;99.90;;;;;;5074515;28;20648;-81
2021/12/05 10:47:51;;;;;;;13.90;7.53;;;5.20;99.90;;;;;;5057986;28;20056;-81
2021/12/05 10:50:50;;;;;;;15.52;7.25;;;5.20;99.90;;;;;;5043679;28;20404;-81
2021/12/05 10:53:46;;;;;;;16.05;7.25;;;5.20;99.90;;;;;;5039230;28;20159;-83
2021/12/05 10:56:14;;;;;;;14.00;6.65;;;5.30;99.90;;;;;;5071356;28;20507;-81
2021/12/05 10:58:48;;;;;;;13.48;7.15;;;5.30;99.90;;;;;;5056351;28;20047;-81
2021/12/05 11:01:19;;;;;;;15.48;6.95;;;5.30;99.90;;;;;;5061628;28;20123;-81
2021/12/05 11:03:47;;;;;;;15.40;7.60;;;5.30;99.90;;;;;;5077657;28;20492;-81
2021/12/05 11:06:28;;;;;;;14.45;6.80;;;5.40;99.90;;;;;;5044618;28;20122;-81
2021/12/05 11:09:02;;;;;;;12.98;6.68;;;5.40;99.90;;;;;;5061122;28;20033;-81
2021/12/05 11:11:28;;;;;;;13.73;6.35;;;5.40;99.90;;;;;;5077350;28;20063;-81
2021/12/05 11:13:55;;;;;;;15.60;7.10;;;5.40;99.90;;;;;;5060093;28;20032;-81
2021/12/05 11:16:51;;;;;;;12.60;6.25;;;5.40;99.90;;;;;;5071136;28;20040;-81
2021/12/05 11:19:21;;;;;;;13.07;6.60;;;5.50;99.90;;;;;;5072650;28;20047;-82
2021/12/05 11:22:10;;;;;;;11.95;7.13;;;5.40;99.90;;;;;;5053100;28;20050;-81
2021/12/05 11:24:51;;;;;;;14.15;7.05;;;5.50;99.90;;;;;;5080814;28;20407;-81
2021/12/05 11:27:34;;;;;;;12.80;6.65;;;5.40;99.90;;;;;;5065313;28;20376;-81
2021/12/05 11:30:30;;;;;;;11.40;5.90;;;5.40;99.90;;;;;;5060170;28;20111;-81
2021/12/05 11:33:18;;;;;;;12.48;6.30;;;5.40;99.90;;;;;;5065474;28;20486;-81
2021/12/05 11:35:59;;;;;;;14.05;6.70;;;5.50;99.90;;;;;;5081767;28;20111;-81
2021/12/05 11:38:30;;;;;;;11.90;6.05;;;5.50;99.90;;;;;;5060631;28;20063;-81
2021/12/05 11:41:03;;;;;;;11.02;5.80;;;5.60;99.90;;;;;;5061008;28;20040;-81
2021/12/05 11:43:40;;;;;;;14.45;5.85;;;5.60;99.90;;;;;;5064327;28;20051;-81
2021/12/05 11:46:13;;;;;;;10.23;5.07;;;5.60;99.90;;;;;;5055577;28;20040;-81
2021/12/05 11:49:03;;;;;;;13.25;6.10;;;5.70;99.90;;;;;;5063625;28;20046;-82
2021/12/05 11:51:31;;;;;;;10.07;5.13;;;5.70;99.90;;;;;;5062026;28;20063;-81
2021/12/05 11:54:36;;;;;;;12.20;5.47;;;5.80;99.90;;;;;;5071805;28;20048;-82
2021/12/05 11:57:17;;;;;;;10.88;5.57;;;5.80;99.90;;;;;;4963144;28;20043;-82
2021/12/05 11:59:56;;;;;;;10.75;5.35;;;5.80;99.90;;;;;;5057104;28;20127;-81
2021/12/05 12:02:24;;;;;;;11.88;5.65;;;5.80;99.90;;;;;;5053998;28;20044;-81
2021/12/05 12:05:09;;;;;;;10.93;5.20;;;5.80;99.90;;;;;;5081439;28;20097;-81
2021/12/05 12:07:44;;;;;;;11.95;5.72;;;5.80;99.90;;;;;;5064649;28;20106;-81
2021/12/05 12:10:17;;;;;;;11.02;5.72;;;5.80;99.90;;;;;;5063888;28;20514;-81
2021/12/05 12:12:51;;;;;;;11.55;5.43;;;5.70;99.90;;;;;;5065131;28;20036;-81
2021/12/05 12:15:17;;;;;;;9.35;5.25;;;5.80;99.90;;;;;;5066952;28;20048;-81
2021/12/05 12:17:46;;;;;;;9.77;4.57;;;5.80;99.90;;;;;;5044227;28;20102;-81
2021/12/05 12:20:17;;;;;;;10.00;5.28;;;5.80;99.90;;;;;;5047894;28;20123;-81
2021/12/05 12:22:43;;;;;;;10.13;4.88;;;6.00;99.90;;;;;;5055806;28;20433;-81
2021/12/05 12:25:14;;;;;;;9.43;4.78;;;5.70;99.90;;;;;;5063395;28;20036;-81
2021/12/05 12:27:44;;;;;;;8.75;4.25;;;5.70;99.90;;;;;;5064440;28;20115;-81
2021/12/05 12:30:13;;;;;;;9.77;5.00;;;5.70;99.90;;;;;;5063769;28;20044;-81
2021/12/05 12:32:43;;;;;;;8.27;4.30;;;5.70;99.90;;;;;;5061320;28;20424;-81
2021/12/05 12:35:20;;;;;;;10.52;5.15;;;5.70;99.90;;;;;;5050239;28;20106;-80
2021/12/05 12:37:55;;;;;;;11.05;4.68;;;5.70;99.90;;;;;;5063037;28;20368;-80
2021/12/05 12:40:54;;;;;;;9.18;4.47;;;5.70;99.90;;;;;;5062606;28;20495;-80
2021/12/05 12:43:41;;;;;;;13.82;4.68;;;5.70;99.90;;;;;;5062448;28;20494;-80
2021/12/05 12:46:30;;;;;;;10.20;4.65;;;5.70;99.90;;;;;;5062530;28;20043;-81
2021/12/05 12:49:16;;;;;;;11.18;4.85;;;5.70;99.90;;;;;;5036271;28;20055;-81
2021/12/05 12:51:56;;;;;;;9.07;4.57;;;5.70;99.90;;;;;;5054409;28;20081;-81
2021/12/05 12:54:27;;;;;;;10.40;4.40;;;5.80;99.90;;;;;;5062517;28;20066;-81
2021/12/05 12:57:22;;;;;;;8.45;4.78;;;5.80;99.90;;;;;;5058461;28;20434;-81
2021/12/05 12:59:57;;;;;;;9.02;4.30;;;5.80;99.90;;;;;;5074189;28;20064;-81
2021/12/05 13:02:58;;;;;;;9.38;4.38;;;5.80;99.90;;;;;;5063403;28;20040;-81
2021/12/05 13:11:10;;;;;;;9.70;4.38;;;5.90;99.90;;;;;;5080143;28;20082;-81
2021/12/05 13:13:39;;;;;;;11.05;4.45;;;5.90;99.90;;;;;;5062888;28;20541;-81
2021/12/05 13:16:26;;;;;;;8.45;4.50;;;5.90;99.90;;;;;;5063234;28;20028;-81
2021/12/05 13:19:13;;;;;;;9.25;4.25;;;5.90;99.90;;;;;;5079470;28;20040;-81
2021/12/05 13:21:43;;;;;;;8.65;4.28;;;5.90;99.90;;;;;;5082255;28;20119;-81
2021/12/05 13:24:16;;;;;;;7.82;4.35;;;5.90;99.90;;;;;;5070564;28;20040;-81
2021/12/05 13:26:42;;;;;;;9.45;4.30;;;5.90;99.90;;;;;;5058474;28;20483;-81
2021/12/05 13:29:22;;;;;;;8.18;4.68;;;5.90;99.90;;;;;;5040784;28;20575;-81
2021/12/05 13:32:11;;;;;;;9.38;4.63;;;5.90;99.90;;;;;;5088518;28;20044;-81
2021/12/05 13:34:49;;;;;;;11.70;4.47;;;5.80;99.90;;;;;;5082647;28;20039;-81
2021/12/05 13:37:16;;;;;;;10.20;4.50;;;5.80;99.90;;;;;;5058267;28;20086;-81
2021/12/05 13:39:47;;;;;;;10.25;3.90;;;5.80;99.90;;;;;;5051495;28;20040;-81
2021/12/05 13:42:16;;;;;;;7.83;4.13;;;5.90;99.90;;;;;;5075774;28;20083;-81
2021/12/05 13:45:06;;;;;;;8.15;4.10;;;5.90;99.90;;;;;;5062497;28;20297;-81
2021/12/05 13:47:52;;;;;;;7.75;4.20;;;5.90;99.90;;;;;;5077297;28;20043;-81
2021/12/05 13:50:18;;;;;;;6.93;4.00;;;5.90;99.90;;;;;;5063239;28;20506;-81
2021/12/05 13:52:46;;;;;;;10.00;4.00;;;6.00;99.90;;;;;;5059965;28;20040;-81
2021/12/05 13:55:36;;;;;;;9.73;4.45;;;5.90;99.90;;;;;;5077489;28;20133;-80
2021/12/05 13:58:34;;;;;;;7.78;3.92;;;5.90;99.90;;;;;;5043939;28;20075;-80
2021/12/05 14:01:16;;;;;;;7.90;4.20;;;5.90;99.90;;;;;;5059365;28;20047;-80
2021/12/05 14:03:41;;;;;;;;;;;5.90;99.90;;;;;;5055350;28;20483;-80
2021/12/05 14:06:33;;;;;;;7.10;3.55;;;5.90;99.90;;;;;;5059637;28;19923;-81
2021/12/05 14:09:23;;;;;;;9.00;3.40;;;5.80;99.90;;;;;;5072853;28;20491;-81
2021/12/05 14:11:58;;;;;;;7.80;3.88;;;5.80;99.90;;;;;;5062991;28;20388;-81
2021/12/05 14:14:46;;;;;;;7.75;3.80;;;5.70;99.90;;;;;;5062291;28;20118;-81
2021/12/05 14:17:37;;;;;;;8.00;4.13;;;5.70;99.90;;;;;;5049020;28;20032;-81
2021/12/05 14:20:25;;;;;;;8.05;3.80;;;5.60;99.90;;;;;;5064986;28;20041;-80
2021/12/05 14:22:52;;;;;;;8.73;4.10;;;5.60;99.90;;;;;;5046086;28;20044;-80
2021/12/05 14:25:20;;;;;;;9.52;4.50;;;5.50;99.90;;;;;;5041912;28;20063;-80
2021/12/05 14:27:57;;;;;;;8.80;4.75;;;5.50;99.90;;;;;;5069436;28;20040;-80
2021/12/05 14:30:26;;;;;;;9.23;4.57;;;5.50;99.90;;;;;;5079001;28;20035;-80
2021/12/05 14:32:57;;;;;;;8.80;4.40;;;5.50;99.90;;;;;;5078660;28;20036;-80
2021/12/05 14:35:28;;;;;;;10.97;4.97;;;5.50;99.90;;;;;;5046000;28;20509;-80
2021/12/05 14:37:54;;;;;;;7.82;4.70;;;5.40;99.90;;;;;;5058068;28;20037;-80
2021/12/05 14:40:31;;;;;;;7.82;4.80;;;5.40;99.90;;;;;;5042873;28;20047;-80
2021/12/05 14:43:00;;;;;;;9.80;4.95;;;5.30;99.90;;;;;;5061947;28;20476;-80
2021/12/05 14:45:29;;;;;;;7.72;4.78;;;5.30;99.90;;;;;;5062329;28;20075;-80
2021/12/05 14:47:59;;;;;;;9.40;5.10;;;5.60;99.90;;;;;;5062219;28;20036;-80
2021/12/05 14:50:31;;;;;;;9.68;5.82;;;5.20;99.90;;;;;;5046292;28;20032;-80
2021/12/05 14:53:00;;;;;;;11.15;5.95;;;5.20;99.90;;;;;;5058595;28;20115;-80
2021/12/05 14:55:27;;;;;;;12.60;10.20;;;5.20;99.90;;;;;;5072580;28;20048;-80
2021/12/05 14:57:56;;;;;;;14.60;10.85;;;5.20;99.90;;;;;;5078134;28;20466;-80
2021/12/05 15:00:32;;;;;;;13.38;9.75;;;5.20;99.90;;;;;;5062954;28;20032;-80
2021/12/05 15:03:08;;;;;;;14.73;9.20;;;5.20;99.90;;;;;;5051536;28;20036;-80
2021/12/05 15:05:36;;;;;;;16.88;10.55;;;5.20;99.90;;;;;;5082362;28;20499;-80
2021/12/05 15:08:05;;;;;;;21.38;15.13;;;5.10;99.90;;;;;;5079951;28;20036;-80
2021/12/05 15:10:31;;;;;;;15.98;11.13;;;5.20;99.90;;;;;;5074855;28;20135;-80
2021/12/05 15:12:57;;;;;;;16.85;11.15;;;5.20;99.90;;;;;;5055055;28;20531;-80
2021/12/05 15:15:25;;;;;;;14.15;10.90;;;5.20;99.90;;;;;;5082800;28;20052;-80
2021/12/05 15:17:52;;;;;;;13.23;10.50;;;5.20;99.90;;;;;;5048651;28;20036;-80
2021/12/05 15:20:21;;;;;;;18.30;11.93;;;5.20;99.90;;;;;;5083370;28;20036;-80
2021/12/05 15:22:52;;;;;;;15.25;10.70;;;5.20;99.90;;;;;;5082447;28;20036;-80
2021/12/05 15:25:20;;;;;;;18.60;10.77;;;5.20;99.90;;;;;;5047873;28;20040;-80
2021/12/05 15:27:47;;;;;;;19.58;11.23;;;5.20;99.90;;;;;;5051603;28;20041;-80
2021/12/05 15:30:19;;;;;;;17.00;10.75;;;5.20;99.90;;;;;;5048606;28;20047;-80
2021/12/05 15:32:49;;;;;;;16.60;10.73;;;5.20;99.90;;;;;;5065719;28;20036;-80
2021/12/05 15:35:18;;;;;;;17.27;11.77;;;5.10;99.90;;;;;;5065457;28;20043;-80
2021/12/05 15:37:48;;;;;;;18.48;11.50;;;5.10;99.90;;;;;;5065886;28;20032;-80
2021/12/05 15:40:14;;;;;;;17.73;12.38;;;5.10;99.90;;;;;;5064386;28;20099;-80
2021/12/05 15:42:40;;;;;;;19.58;13.38;;;5.20;99.90;;;;;;5065209;28;20399;-80
2021/12/05 15:45:10;;;;;;;17.52;12.30;;;5.10;99.90;;;;;;5044766;28;20036;-80
2021/12/05 15:47:37;;;;;;;18.42;13.35;;;5.10;99.90;;;;;;5064512;28;20054;-80
2021/12/05 15:50:14;;;;;;;18.95;13.05;;;5.10;99.90;;;;;;5082232;28;20036;-80
2021/12/05 15:52:58;;;;;;;19.33;12.65;;;5.10;99.90;;;;;;5081391;28;20115;-80
2021/12/05 15:55:45;;;;;;;20.02;12.85;;;5.10;99.90;;;;;;5065261;28;20060;-81
2021/12/05 15:58:19;;;;;;;19.92;13.80;;;5.10;99.90;;;;;;5099069;28;20504;-81
2021/12/05 16:00:54;;;;;;;21.30;13.55;;;5.10;99.90;;;;;;5065246;28;20051;-81
2021/12/05 16:03:24;;;;;;;20.77;14.32;;;5.00;99.90;;;;;;5064378;28;20043;-80
2021/12/05 16:06:00;;;;;;;22.42;14.73;;;5.00;99.90;;;;;;5065924;28;20495;-80
2021/12/05 16:08:31;;;;;;;20.55;14.98;;;5.00;99.90;;;;;;5081057;28;20032;-80
2021/12/05 16:10:59;;;;;;;23.88;15.13;;;5.00;99.90;;;;;;5065383;28;20040;-80
2021/12/05 16:13:47;;;;;;;24.63;15.68;;;5.10;99.90;;;;;;5064203;28;20036;-80
2021/12/05 16:16:33;;;;;;;25.60;14.65;;;5.00;99.90;;;;;;5064981;28;20036;-80
2021/12/05 16:19:03;;;;;;;19.35;13.57;;;5.00;99.90;;;;;;5065314;28;20038;-80
2021/12/05 16:21:34;;;;;;;22.77;15.95;;;5.00;99.90;;;;;;5064791;28;20384;-81
2021/12/05 16:24:12;;;;;;;22.50;15.52;;;5.00;99.90;;;;;;5050954;28;20028;-81
2021/12/05 16:26:38;;;;;;;23.02;17.17;;;5.00;99.90;;;;;;5064547;28;20044;-81
2021/12/05 16:29:07;;;;;;;26.35;16.83;;;5.00;99.90;;;;;;5081142;28;20039;-81
2021/12/05 16:31:37;;;;;;;23.88;16.02;;;4.90;99.90;;;;;;5064543;28;20036;-81
2021/12/05 16:34:06;;;;;;;27.27;17.38;;;5.00;99.90;;;;;;5064334;28;20036;-81
2021/12/05 16:36:52;;;;;;;25.70;16.90;;;4.90;99.90;;;;;;5064148;28;20036;-81
2021/12/05 16:39:30;;;;;;;20.52;16.40;;;4.90;99.90;;;;;;5072953;28;20126;-81
2021/12/05 16:42:09;;;;;;;23.67;15.93;;;4.90;99.90;;;;;;5058938;28;20044;-80
2021/12/05 16:44:37;;;;;;;35.25;22.40;;;4.90;99.90;;;;;;5064023;28;20051;-80
2021/12/05 16:47:14;;;;;;;42.00;31.98;;;4.90;99.90;;;;;;5064534;28;20040;-80
2021/12/05 16:49:44;;;;;;;32.47;23.75;;;4.90;99.90;;;;;;5080589;28;20048;-80
2021/12/05 16:52:22;;;;;;;31.83;22.13;;;4.90;99.90;;;;;;5060817;28;20032;-80
2021/12/05 16:54:51;;;;;;;25.70;19.70;;;4.90;99.90;;;;;;5055207;28;20074;-80
2021/12/05 16:57:21;;;;;;;27.60;17.25;;;4.90;99.90;;;;;;5075852;28;20077;-80
2021/12/05 16:59:49;;;;;;;27.75;19.02;;;4.90;99.90;;;;;;5063309;28;20036;-80
2021/12/05 17:02:27;;;;;;;27.73;17.48;;;5.50;99.90;;;;;;5081326;28;20055;-81
2021/12/05 17:05:00;;;;;;;29.92;18.55;;;4.90;99.90;;;;;;5064458;28;20036;-81
2021/12/05 17:07:55;;;;;;;28.50;18.92;;;5.00;99.90;;;;;;5064657;28;20043;-81
2021/12/05 17:10:21;;;;;;;28.02;20.00;;;4.90;99.90;;;;;;5050896;28;20048;-81
2021/12/05 17:12:55;;;;;;;29.85;21.33;;;4.90;99.90;;;;;;5058301;28;20120;-81
2021/12/05 17:15:28;;;;;;;26.88;17.35;;;4.90;99.90;;;;;;5079771;28;20495;-80
2021/12/05 17:18:04;;;;;;;29.88;20.38;;;4.90;99.90;;;;;;5056317;28;20483;-80
2021/12/05 17:20:34;;;;;;;31.23;22.10;;;4.90;99.90;;;;;;5057675;28;20048;-80
2021/12/05 17:23:25;;;;;;;27.92;17.55;;;4.90;99.90;;;;;;5051647;28;20092;-80
2021/12/05 17:25:55;;;;;;;31.75;20.48;;;4.90;99.90;;;;;;5055576;28;20044;-80
2021/12/05 17:28:49;;;;;;;33.35;22.88;;;5.50;99.90;;;;;;5082840;28;20040;-80
2021/12/05 17:31:23;;;;;;;33.17;23.60;;;4.90;99.90;;;;;;5084629;28;20047;-80
2021/12/05 17:33:56;;;;;;;31.45;21.40;;;4.90;99.90;;;;;;5086094;28;20040;-80
2021/12/05 17:36:32;;;;;;;40.58;25.52;;;4.90;99.90;;;;;;5048428;28;20037;-80
2021/12/05 17:39:05;;;;;;;42.10;26.83;;;4.90;99.90;;;;;;5061849;28;20036;-80
2021/12/05 17:41:32;;;;;;;42.20;29.10;;;4.80;99.90;;;;;;5085031;28;20580;-81
2021/12/05 17:44:00;;;;;;;44.35;28.50;;;4.80;99.90;;;;;;5082328;28;20101;-81
2021/12/05 17:46:27;;;;;;;49.05;31.70;;;4.80;99.90;;;;;;5061558;28;20051;-81
2021/12/05 17:48:53;;;;;;;38.60;26.92;;;4.80;99.90;;;;;;5068135;28;20418;-81
2021/12/05 17:51:21;;;;;;;50.33;30.75;;;4.80;99.90;;;;;;5067487;28;20040;-81
2021/12/05 17:53:49;;;;;;;51.50;34.10;;;4.80;99.90;;;;;;5091928;28;20123;-81
2021/12/05 17:56:31;;;;;;;49.00;30.55;;;4.70;99.90;;;;;;5078868;28;20082;-81
2021/12/05 17:59:12;;;;;;;48.55;30.30;;;4.80;99.90;;;;;;5065845;28;20042;-81
2021/12/05 18:04:26;;;;;;;57.25;35.63;;;4.80;99.90;;;;;;5081746;28;20067;-80
2021/12/05 18:06:52;;;;;;;54.10;34.22;;;4.80;99.90;;;;;;5063561;28;20089;-80
2021/12/05 18:09:18;;;;;;;62.10;39.22;;;4.70;99.90;;;;;;5058163;28;20561;-80
2021/12/05 18:11:44;;;;;;;52.45;31.60;;;4.70;99.90;;;;;;5068275;28;20043;-80
2021/12/05 18:14:10;;;;;;;67.85;41.63;;;4.90;99.90;;;;;;5065936;28;20471;-80
2021/12/05 18:16:36;;;;;;;66.88;44.53;;;4.80;99.90;;;;;;5049427;28;20473;-80
2021/12/05 18:19:06;;;;;;;63.85;39.95;;;4.80;99.90;;;;;;5041434;28;20048;-80
2021/12/05 18:21:37;;;;;;;65.47;40.03;;;4.70;99.90;;;;;;5073813;28;20047;-80
2021/12/05 18:24:07;;;;;;;54.30;35.22;;;4.70;99.90;;;;;;5081862;28;20067;-80